createdAt,value
2023-04-14T00:02:25.366Z,9.84
2023-04-14T00:04:53.992Z,9.82
2023-04-14T00:07:21.982Z,9.78
2023-04-14T00:09:49.679Z,9.72
2023-04-14T00:12:17.443Z,9.66
2023-04-14T00:14:45.285Z,9.62
2023-04-14T00:17:13.252Z,9.60
2023-04-14T00:19:41.752Z,9.59
2023-04-14T00:22:09.685Z,9.57
2023-04-14T00:24:43.066Z,9.52
2023-04-14T00:27:11.208Z,9.45
2023-04-14T00:29:39.399Z,9.37
2023-04-14T00:32:07.291Z,9.31
2023-04-14T00:34:37.040Z,9.24
2023-04-14T00:37:05.031Z,9.20
2023-04-14T00:39:32.878Z,9.15
2023-04-14T00:42:04.789Z,9.10
2023-04-14T00:44:32.544Z,9.06
2023-04-14T00:47:01.704Z,9.01
2023-04-14T00:49:29.536Z,8.94
2023-04-14T00:52:01.051Z,8.89
2023-04-14T00:54:29.110Z,8.84
2023-04-14T00:56:58.652Z,8.80
2023-04-14T00:59:28.840Z,8.74
2023-04-14T01:02:01.087Z,8.66
2023-04-14T01:04:37.039Z,8.58
2023-04-14T01:07:12.993Z,8.53
2023-04-14T01:09:41.075Z,8.49
2023-04-14T01:12:33.378Z,8.45
2023-04-14T01:15:39.119Z,8.43
2023-04-14T01:18:19.887Z,8.45
2023-04-14T01:20:54.544Z,8.46
2023-04-14T01:23:32.143Z,8.50
2023-04-14T01:26:19.863Z,8.47
2023-04-14T01:29:22.085Z,8.44
2023-04-14T01:32:11.532Z,8.41
2023-04-14T01:34:52.522Z,8.38
2023-04-14T01:37:32.213Z,8.32
2023-04-14T01:40:07.980Z,8.28
2023-04-14T01:42:37.977Z,8.20
2023-04-14T01:45:28.903Z,8.17
2023-04-14T01:47:59.469Z,8.15
2023-04-14T01:50:28.680Z,8.12
2023-04-14T01:52:58.936Z,8.03
2023-04-14T01:55:29.286Z,7.96
2023-04-14T01:57:58.788Z,7.86
2023-04-14T02:00:27.648Z,7.81
2023-04-14T02:02:57.124Z,7.82
2023-04-14T02:05:26.203Z,7.80
2023-04-14T02:07:55.799Z,7.80
2023-04-14T02:10:24.495Z,7.79
2023-04-14T02:12:58.451Z,7.78
2023-04-14T02:21:42.850Z,7.70
2023-04-14T02:24:10.814Z,7.68
2023-04-14T02:26:45.584Z,7.62
2023-04-14T02:29:16.405Z,7.53
2023-04-14T02:31:49.870Z,7.48
2023-04-14T02:34:23.961Z,7.44
2023-04-14T02:36:57.604Z,7.42
2023-04-14T02:39:41.859Z,7.40
2023-04-14T02:42:17.831Z,7.41
2023-04-14T02:44:51.730Z,7.40
2023-04-14T02:47:27.201Z,7.38
2023-04-14T02:50:00.612Z,7.34
2023-04-14T02:52:32.920Z,7.29
2023-04-14T02:55:02.895Z,7.26
2023-04-14T02:57:33.155Z,7.21
2023-04-14T03:00:06.211Z,7.19
2023-04-14T03:02:38.322Z,7.16
2023-04-14T03:05:07.928Z,7.18
2023-04-14T03:07:37.671Z,7.18
2023-04-14T03:10:07.124Z,7.13
2023-04-14T03:12:36.173Z,7.11
2023-04-14T03:15:09.511Z,7.08
2023-04-14T03:17:38.204Z,7.05
2023-04-14T03:20:07.092Z,7.01
2023-04-14T03:22:40.687Z,6.98
2023-04-14T03:25:10.074Z,6.96
2023-04-14T03:27:40.484Z,6.96
2023-04-14T03:30:10.788Z,6.94
2023-04-14T03:32:42.350Z,6.91
2023-04-14T03:35:13.067Z,6.88
2023-04-14T03:37:44.817Z,6.85
2023-04-14T03:40:15.553Z,6.86
2023-04-14T03:42:46.320Z,6.88
2023-04-14T03:45:14.074Z,6.90
2023-04-14T03:47:42.104Z,6.96
2023-04-14T03:50:11.413Z,7.02
2023-04-14T03:52:43.815Z,7.12
2023-04-14T03:55:12.706Z,7.25
2023-04-14T03:57:43.953Z,7.35
2023-04-14T04:00:17.070Z,7.44
2023-04-14T04:02:46.598Z,7.57
2023-04-14T04:05:15.177Z,7.69
2023-04-14T04:07:45.184Z,7.79
2023-04-14T04:10:20.606Z,7.90
2023-04-14T04:12:50.786Z,7.96
2023-04-14T04:15:18.705Z,8.04
2023-04-14T04:17:50.255Z,8.14
2023-04-14T04:20:19.386Z,8.17
2023-04-14T04:22:51.556Z,8.21
2023-04-14T04:25:19.998Z,8.28
2023-04-14T04:27:49.809Z,8.32
2023-04-14T04:30:19.011Z,8.40
2023-04-14T04:32:47.890Z,8.52
2023-04-14T04:35:17.370Z,8.53
2023-04-14T04:37:46.334Z,8.55
2023-04-14T04:40:25.676Z,8.63
2023-04-14T04:42:53.926Z,8.68
2023-04-14T04:45:53.678Z,8.70
2023-04-14T04:48:21.544Z,8.75
2023-04-14T04:50:49.669Z,8.81
2023-04-14T04:53:17.403Z,8.87
2023-04-14T04:56:40.631Z,8.90
2023-04-14T04:59:09.535Z,8.95
2023-04-14T05:02:07.323Z,8.99
2023-04-14T05:04:35.735Z,9.05
2023-04-14T05:07:03.620Z,9.08
2023-04-14T05:09:31.381Z,9.17
2023-04-14T05:11:59.200Z,9.30
2023-04-14T05:15:16.834Z,9.40
2023-04-14T05:17:44.589Z,9.53
2023-04-14T05:20:13.215Z,9.64
2023-04-14T05:22:41.622Z,9.67
2023-04-14T05:25:09.478Z,9.73
2023-04-14T05:29:45.850Z,9.95
2023-04-14T05:33:17.370Z,10.01
2023-04-14T05:47:17.202Z,10.52
2023-04-14T05:50:04.258Z,10.57
2023-04-14T05:53:45.626Z,10.64
2023-04-14T05:57:22.575Z,10.61
2023-04-14T06:01:04.232Z,10.59
2023-04-14T06:04:45.554Z,10.63
2023-04-14T06:08:45.554Z,10.78
2023-04-14T06:12:01.531Z,10.88
2023-04-14T06:16:00.305Z,11.02
2023-04-14T06:19:21.712Z,11.11
2023-04-14T06:23:04.769Z,11.27
2023-04-14T06:26:54.982Z,11.44
2023-04-14T06:30:35.962Z,11.70
2023-04-14T06:34:16.276Z,11.79
2023-04-14T06:37:48.171Z,11.95
2023-04-14T06:41:27.663Z,12.22
2023-04-14T06:44:46.503Z,12.47
2023-04-14T06:48:27.375Z,12.97
2023-04-14T06:52:05.770Z,13.69
2023-04-14T06:56:11.019Z,14.59
2023-04-14T06:59:29.683Z,15.01
2023-04-14T07:03:00.160Z,15.37
2023-04-14T07:06:39.086Z,15.80
2023-04-14T07:10:23.371Z,16.09
2023-04-14T07:13:56.179Z,16.51
2023-04-14T07:18:00.633Z,17.36
2023-04-14T07:25:37.528Z,18.57
2023-04-14T07:28:56.586Z,18.95
2023-04-14T07:32:33.538Z,19.34
2023-04-14T07:36:14.452Z,18.81
2023-04-14T07:40:12.266Z,17.79
2023-04-14T07:43:35.236Z,17.88
2023-04-14T07:47:17.168Z,17.85
2023-04-14T07:50:50.370Z,18.87
2023-04-14T07:54:46.890Z,19.44
2023-04-14T07:58:05.341Z,19.48
2023-04-14T08:01:42.961Z,19.41
2023-04-14T08:05:22.706Z,19.45
2023-04-14T08:09:05.499Z,19.75
2023-04-14T08:12:44.241Z,20.13
2023-04-14T08:16:41.083Z,19.34
2023-04-14T08:20:22.302Z,18.78
2023-04-14T08:23:56.691Z,19.26
2023-04-14T08:41:39.250Z,21.24
2023-04-14T08:45:02.198Z,20.60
2023-04-14T08:48:50.928Z,20.62
2023-04-14T08:52:16.405Z,20.93
2023-04-14T08:56:19.269Z,21.70
2023-04-14T08:59:07.189Z,22.10
2023-04-14T09:02:45.844Z,22.37
2023-04-14T09:06:38.799Z,22.25
2023-04-14T09:10:14.124Z,21.41
2023-04-14T09:14:09.829Z,21.12
2023-04-14T09:27:56.043Z,21.21
2023-04-14T09:31:04.681Z,21.13
2023-04-14T09:35:14.706Z,21.23
2023-04-14T09:38:12.564Z,21.59
2023-04-14T09:41:47.897Z,22.10
2023-04-14T09:55:54.986Z,24.28
2023-04-14T09:58:50.573Z,24.31
2023-04-14T10:02:50.781Z,23.31
2023-04-14T10:06:22.942Z,22.68
2023-04-14T10:09:39.454Z,21.11
2023-04-14T10:13:31.790Z,20.80
2023-04-14T10:16:58.126Z,20.19
2023-04-14T10:20:37.691Z,20.65
2023-04-14T10:25:53.415Z,20.49
2023-04-14T10:39:28.053Z,22.96
2023-04-14T10:42:41.211Z,23.15
2023-04-14T10:56:29.980Z,23.72
2023-04-14T11:10:48.681Z,22.90
2023-04-14T11:13:33.798Z,22.84
2023-04-14T11:17:29.665Z,23.66
2023-04-14T11:21:17.979Z,23.26
2023-04-14T11:35:09.778Z,23.07
2023-04-14T13:16:12.030Z,24.77
2023-04-14T13:18:17.618Z,24.98
2023-04-14T13:21:53.013Z,25.02
2023-04-14T13:25:00.099Z,24.90
2023-04-14T13:48:20.541Z,24.49
2023-04-14T14:01:53.047Z,24.01
2023-04-14T14:04:53.625Z,24.08
2023-04-14T14:08:40.959Z,25.14
2023-04-14T14:12:00.172Z,25.85
2023-04-14T14:15:46.313Z,25.63
2023-04-14T14:19:23.349Z,25.41
2023-04-14T14:23:20.979Z,23.54
2023-04-14T14:26:50.535Z,23.91
2023-04-14T14:30:09.087Z,23.85
2023-04-14T14:33:47.985Z,22.92
2023-04-14T14:36:15.987Z,23.42
2023-04-14T14:38:47.909Z,24.24
2023-04-14T14:41:18.638Z,23.51
2023-04-14T14:43:46.427Z,24.53
2023-04-14T14:46:14.432Z,25.27
2023-04-14T14:48:42.354Z,25.87
2023-04-14T14:51:10.457Z,25.15
2023-04-14T14:53:39.065Z,24.40
2023-04-14T14:56:07.474Z,24.00
2023-04-14T14:58:35.302Z,23.36
2023-04-14T15:01:06.105Z,23.15
2023-04-14T15:03:35.413Z,23.90
2023-04-14T15:06:15.922Z,25.43
2023-04-14T15:08:46.346Z,26.63
2023-04-14T15:11:20.013Z,26.94
2023-04-14T15:13:49.260Z,27.46
2023-04-14T15:16:17.110Z,27.12
2023-04-14T15:18:44.839Z,25.44
2023-04-14T15:21:16.620Z,23.54
2023-04-14T15:23:45.628Z,22.48
2023-04-14T15:26:21.274Z,21.81
2023-04-14T16:09:06.770Z,18.55
2023-04-14T16:22:18.457Z,18.20
2023-04-14T16:24:46.705Z,18.11
2023-04-14T16:33:16.161Z,17.66
2023-04-14T16:35:43.872Z,17.43
2023-04-14T16:38:12.226Z,17.02
2023-04-14T16:40:40.142Z,16.71
2023-04-14T16:43:09.598Z,16.42
2023-04-14T16:45:37.386Z,16.14
2023-04-14T16:48:05.388Z,15.94
2023-04-14T16:50:37.124Z,15.76
2023-04-14T16:53:04.859Z,15.57
2023-04-14T16:55:35.437Z,15.47
2023-04-14T16:58:03.614Z,15.31
2023-04-14T17:00:31.742Z,15.09
2023-04-14T17:02:59.898Z,14.94
2023-04-14T17:05:28.056Z,14.80
2023-04-14T17:07:55.938Z,14.72
2023-04-14T17:10:25.582Z,14.66
2023-04-14T17:12:53.954Z,14.57
2023-04-14T17:15:21.865Z,14.41
2023-04-14T17:17:49.604Z,14.33
2023-04-14T17:20:17.409Z,14.31
2023-04-14T17:22:47.577Z,14.28
2023-04-14T17:25:19.305Z,14.22
2023-04-14T17:27:47.756Z,14.13
2023-04-14T17:30:18.153Z,14.07
2023-04-14T17:32:49.721Z,13.98
2023-04-14T17:35:17.774Z,13.91
2023-04-14T17:37:46.107Z,13.88
2023-04-14T17:40:17.519Z,13.79
2023-04-14T17:42:45.956Z,13.79
2023-04-14T17:45:13.802Z,13.80
2023-04-14T17:47:42.691Z,13.75
2023-04-14T17:50:11.829Z,13.67
2023-04-14T17:52:40.159Z,13.58
2023-04-14T17:55:09.101Z,13.52
2023-04-14T17:57:37.760Z,13.47
2023-04-14T18:00:28.473Z,13.41
2023-04-14T18:03:01.813Z,13.34
2023-04-14T18:05:31.255Z,13.29
2023-04-14T18:08:01.406Z,13.27
2023-04-14T18:10:29.504Z,13.28
2023-04-14T18:12:57.847Z,13.25
2023-04-14T18:15:25.764Z,13.19
2023-04-14T18:18:11.606Z,13.15
2023-04-14T18:20:39.990Z,13.12
2023-04-14T18:23:07.791Z,13.13
2023-04-14T18:28:06.593Z,13.02
2023-04-14T18:30:34.559Z,13.07
2023-04-14T18:33:02.526Z,12.99
2023-04-14T18:35:30.243Z,12.97
2023-04-14T18:37:59.327Z,12.92
2023-04-14T18:40:27.837Z,12.87
2023-04-14T18:42:57.264Z,12.84
2023-04-14T18:45:26.648Z,12.81
2023-04-14T18:47:54.530Z,12.79
2023-04-14T18:50:22.204Z,12.73
2023-04-14T18:52:50.128Z,12.69
2023-04-14T18:55:19.186Z,12.68
2023-04-14T18:57:48.444Z,12.68
2023-04-14T19:00:16.841Z,12.71
2023-04-14T19:02:44.693Z,12.67
2023-04-14T19:05:13.241Z,12.68
2023-04-14T19:07:41.036Z,12.65
2023-04-14T19:10:10.770Z,12.63
2023-04-14T19:12:40.494Z,12.62
2023-04-14T19:15:08.947Z,12.60
2023-04-14T19:17:38.016Z,12.60
2023-04-14T19:20:07.391Z,12.60
2023-04-14T19:22:38.361Z,12.55
2023-04-14T19:25:06.548Z,12.49
2023-04-14T19:27:36.120Z,12.51
2023-04-14T19:30:05.079Z,12.45
2023-04-14T19:32:36.019Z,12.48
2023-04-14T19:35:06.372Z,12.47
2023-04-14T19:37:34.947Z,12.44
2023-04-14T19:40:06.165Z,12.43
2023-04-14T19:42:34.093Z,12.43
2023-04-14T19:45:02.153Z,12.41
2023-04-14T19:47:30.097Z,12.38
2023-04-14T19:49:59.775Z,12.38
2023-04-14T19:52:28.252Z,12.30
2023-04-14T19:54:56.881Z,12.24
2023-04-14T19:57:24.588Z,12.18
2023-04-14T19:59:52.356Z,12.19
2023-04-14T20:02:20.094Z,12.18
2023-04-14T20:04:48.440Z,12.10
2023-04-14T20:07:16.241Z,12.06
2023-04-14T20:09:46.615Z,12.09
2023-04-14T20:12:14.374Z,12.06
2023-04-14T20:14:42.125Z,12.03
2023-04-14T20:17:09.758Z,12.00
2023-04-14T20:19:38.012Z,11.97
2023-04-14T20:22:05.693Z,11.97
2023-04-14T20:24:33.917Z,11.93
2023-04-14T20:27:01.570Z,11.92
2023-04-14T20:29:30.740Z,11.92
2023-04-14T20:31:58.724Z,11.94
2023-04-14T20:34:26.707Z,11.99
2023-04-14T20:36:55.170Z,12.00
2023-04-14T20:39:23.056Z,12.01
2023-04-14T20:41:51.729Z,12.03
2023-04-14T20:44:19.433Z,12.03
2023-04-14T20:46:48.212Z,12.09
2023-04-14T20:49:16.180Z,12.07
2023-04-14T20:51:46.758Z,12.18
2023-04-14T20:54:14.451Z,12.22
2023-04-14T20:56:42.152Z,12.23
2023-04-14T20:59:10.353Z,12.25
2023-04-14T21:01:39.051Z,12.23
2023-04-14T21:04:07.081Z,12.20
2023-04-14T21:06:35.303Z,12.25
2023-04-14T21:09:03.986Z,12.17
2023-04-14T21:11:32.522Z,12.09
2023-04-14T21:15:29.029Z,12.09
2023-04-14T21:16:48.177Z,12.07
2023-04-14T21:19:16.329Z,12.04
2023-04-14T21:21:43.985Z,11.95
2023-04-14T21:24:14.699Z,11.88
2023-04-14T21:26:42.480Z,11.86
2023-04-14T21:29:10.202Z,11.87
2023-04-14T21:31:38.646Z,11.87
2023-04-14T21:34:06.469Z,11.88
2023-04-14T21:36:34.678Z,11.91
2023-04-14T21:39:04.185Z,11.98
2023-04-14T21:41:35.765Z,11.99
2023-04-14T21:44:04.168Z,11.94
2023-04-14T21:46:34.811Z,11.87
2023-04-14T21:49:02.906Z,11.82
2023-04-14T21:51:30.727Z,11.77
2023-04-14T21:53:58.652Z,11.76
2023-04-14T21:56:26.369Z,11.71
2023-04-14T21:58:54.613Z,11.70
2023-04-14T22:01:23.759Z,11.70
2023-04-14T22:03:51.910Z,11.70
2023-04-14T22:06:21.234Z,11.72
2023-04-14T22:08:49.008Z,11.70
2023-04-14T22:11:19.069Z,11.65
2023-04-14T22:13:47.773Z,11.72
2023-04-14T22:16:16.405Z,11.69
2023-04-14T22:18:45.472Z,11.70
2023-04-14T22:21:15.390Z,11.75
2023-04-14T22:23:43.830Z,11.73
2023-04-14T22:26:12.586Z,11.69
2023-04-14T22:28:41.366Z,11.71
2023-04-14T22:31:09.716Z,11.66
2023-04-14T22:33:37.492Z,11.65
2023-04-14T22:36:07.015Z,11.62
2023-04-14T22:38:34.791Z,11.65
2023-04-14T22:41:02.490Z,11.67
2023-04-14T22:43:30.129Z,11.65
2023-04-14T22:45:58.024Z,11.60
2023-04-14T22:48:25.804Z,11.57
2023-04-14T22:50:53.440Z,11.59
2023-04-14T22:53:21.096Z,11.56
2023-04-14T22:55:48.799Z,11.55
2023-04-14T22:58:17.667Z,11.49
2023-04-14T23:00:46.200Z,11.47
2023-04-14T23:03:14.037Z,11.49
2023-04-14T23:05:41.970Z,11.48
2023-04-14T23:08:10.260Z,11.47
2023-04-14T23:10:38.511Z,11.45
2023-04-14T23:13:06.364Z,11.46
2023-04-14T23:15:34.044Z,11.43
2023-04-14T23:18:02.293Z,11.44
2023-04-14T23:20:32.088Z,11.40
2023-04-14T23:22:59.692Z,11.43
2023-04-14T23:25:27.801Z,11.47
2023-04-14T23:27:55.500Z,11.48
2023-04-14T23:30:23.215Z,11.48
2023-04-14T23:32:50.932Z,11.47
2023-04-14T23:35:18.647Z,11.46
2023-04-14T23:37:46.286Z,11.45
2023-04-14T23:40:14.323Z,11.46
2023-04-14T23:42:41.984Z,11.44
2023-04-14T23:45:09.809Z,11.43
2023-04-14T23:47:37.622Z,11.45
2023-04-14T23:50:05.819Z,11.43
2023-04-14T23:52:36.005Z,11.42
2023-04-14T23:55:03.936Z,11.36
2023-04-14T23:57:31.575Z,11.34
2023-04-14T23:59:59.187Z,11.37
